Terminal Aerodrome Forecast
Issued by NWS

Home | Current Version | Previous Version | Text Only | Print | Product List | Glossary On
Versions: 1 2 3 4 5 6 7 8 9 10 11 12 13
966
FTUS44 KLZK 280548
TAFBPK
TAF
KBPK 280548Z 2806/2906 VRB03KT P6SM VCSH OVC080
      TEMPO 2806/2810 -SHRA BKN040
     FM281000 VRB03KT P6SM BKN015
     FM281500 01008KT P6SM BKN050
     FM290000 01005KT P6SM SCT250=

USA.gov is the U.S. government's official web portal to all federal, state and local government web resources and services.